Time;durP1;ratioP1;P1;durP2;ratioP2;P2;SDS_P1;SDS_P2;PMS_P1;PMS_P2;Temp;Humidity;BMP_temperature;BMP_pressure;BME280_temperature;BME280_humidity;BME280_pressure;Samples;Min_cycle;Max_cycle;Signal;HPM_P1;HPM_P2
2022/07/18 00:00:44;;;;;;;1.30;1.20;;;15.90;98.70;;;;;;483449;245;28824;-68
2022/07/18 00:02:46;;;;;;;1.47;1.37;;;15.80;98.60;;;;;;483429;245;28820;-68
2022/07/18 00:04:47;;;;;;;1.40;1.30;;;15.90;98.70;;;;;;483444;245;28855;-69
2022/07/18 00:06:48;;;;;;;1.40;1.30;;;15.80;98.80;;;;;;483370;245;28918;-72
2022/07/18 00:08:49;;;;;;;1.77;1.67;;;15.80;99.20;;;;;;483446;245;28795;-68
2022/07/18 00:10:51;;;;;;;1.80;1.70;;;15.70;99.60;;;;;;483440;245;28823;-70
2022/07/18 00:12:52;;;;;;;1.20;1.20;;;15.70;99.80;;;;;;483425;246;28877;-68
2022/07/18 00:14:53;;;;;;;1.40;1.40;;;15.60;99.90;;;;;;483448;245;28715;-68
2022/07/18 00:16:54;;;;;;;1.40;1.30;;;15.70;99.80;;;;;;483337;245;28819;-69
2022/07/18 00:18:58;;;;;;;1.83;1.30;;;15.60;99.70;;;;;;483432;245;29262;-68
2022/07/18 00:20:57;;;;;;;1.17;1.17;;;15.60;99.70;;;;;;483314;245;29270;-69
2022/07/18 00:22:58;;;;;;;1.37;1.30;;;15.50;99.70;;;;;;483444;245;29343;-68
2022/07/18 00:24:59;;;;;;;2.00;1.47;;;15.40;99.70;;;;;;483443;245;29293;-68
2022/07/18 00:27:02;;;;;;;1.50;1.40;;;15.40;99.80;;;;;;483378;245;28916;-71
2022/07/18 00:29:02;;;;;;;1.43;1.33;;;15.40;99.90;;;;;;483417;245;28870;-68
2022/07/18 00:31:03;;;;;;;1.50;1.40;;;15.50;99.80;;;;;;483440;245;28805;-70
2022/07/18 00:33:04;;;;;;;1.63;1.53;;;15.40;99.90;;;;;;483440;246;28753;-67
2022/07/18 00:35:06;;;;;;;1.53;1.43;;;15.40;99.90;;;;;;483303;245;28938;-69
2022/07/18 00:37:07;;;;;;;1.50;1.40;;;15.30;99.90;;;;;;483387;245;28820;-71
2022/07/18 00:39:08;;;;;;;1.50;1.40;;;15.20;99.90;;;;;;483465;245;28852;-68
2022/07/18 00:41:09;;;;;;;1.20;1.20;;;15.20;99.90;;;;;;483477;246;28900;-69
2022/07/18 00:43:11;;;;;;;1.50;1.40;;;15.20;99.90;;;;;;483464;245;28783;-69
2022/07/18 00:45:12;;;;;;;1.67;1.57;;;15.20;99.90;;;;;;483448;245;29278;-69
2022/07/18 00:47:13;;;;;;;1.50;1.40;;;15.20;99.90;;;;;;483371;245;29285;-70
2022/07/18 00:49:14;;;;;;;1.50;1.40;;;15.20;99.90;;;;;;483467;245;29348;-67
2022/07/18 00:51:16;;;;;;;1.63;1.53;;;15.20;99.90;;;;;;483435;246;28836;-70
2022/07/18 00:53:17;;;;;;;1.70;1.60;;;15.20;99.90;;;;;;483423;245;28769;-68
2022/07/18 00:55:18;;;;;;;1.50;1.40;;;15.20;99.90;;;;;;483438;245;28959;-68
2022/07/18 00:57:19;;;;;;;1.50;1.40;;;15.10;99.90;;;;;;483405;245;28820;-73
2022/07/18 00:59:21;;;;;;;1.50;1.40;;;15.10;99.90;;;;;;483463;245;28792;-68
2022/07/18 01:03:41;;;;;;;1.27;1.27;;;15.10;99.90;;;;;;483419;246;29259;-67
2022/07/18 01:05:43;;;;;;;1.50;1.50;;;15.10;99.90;;;;;;483424;245;29343;-68
2022/07/18 01:07:44;;;;;;;1.50;1.40;;;15.00;99.90;;;;;;483390;245;29375;-72
2022/07/18 01:09:45;;;;;;;2.90;1.50;;;14.90;99.90;;;;;;483429;246;28811;-68
2022/07/18 01:11:46;;;;;;;1.30;1.20;;;14.80;99.90;;;;;;483425;246;28816;-69
2022/07/18 01:13:48;;;;;;;1.33;1.33;;;14.80;99.90;;;;;;483432;246;28764;-68
2022/07/18 01:15:49;;;;;;;1.43;1.33;;;14.80;99.90;;;;;;483441;245;28902;-68
2022/07/18 01:17:50;;;;;;;1.40;1.40;;;14.80;99.90;;;;;;483376;246;28839;-70
2022/07/18 01:19:51;;;;;;;1.30;1.30;;;14.70;99.90;;;;;;483425;245;28792;-68
2022/07/18 01:21:53;;;;;;;1.57;1.47;;;14.70;99.90;;;;;;483451;245;28882;-69
2022/07/18 01:23:54;;;;;;;1.30;1.30;;;14.70;99.90;;;;;;483423;245;28872;-68
2022/07/18 01:25:55;;;;;;;1.47;1.37;;;14.70;99.90;;;;;;483437;245;28936;-68
2022/07/18 01:27:56;;;;;;;1.33;1.30;;;14.60;99.90;;;;;;483374;245;29325;-69
2022/07/18 01:29:58;;;;;;;1.20;1.20;;;14.70;99.90;;;;;;483437;245;28939;-67
2022/07/18 01:31:59;;;;;;;1.73;1.30;;;14.60;99.90;;;;;;483435;245;29374;-68
2022/07/18 01:34:00;;;;;;;1.47;1.37;;;14.70;99.90;;;;;;483427;246;28800;-67
2022/07/18 01:36:01;;;;;;;1.60;1.50;;;14.60;99.90;;;;;;483321;245;28508;-67
2022/07/18 01:38:03;;;;;;;1.40;1.30;;;14.70;99.90;;;;;;483403;245;28802;-71
2022/07/18 01:40:04;;;;;;;1.40;1.30;;;14.70;99.90;;;;;;483326;245;28795;-67
2022/07/18 01:42:05;;;;;;;1.63;1.40;;;14.70;99.90;;;;;;483464;245;28544;-69
2022/07/18 01:44:06;;;;;;;1.60;1.50;;;14.70;99.90;;;;;;483443;245;28882;-68
2022/07/18 01:46:08;;;;;;;1.40;1.30;;;14.60;99.90;;;;;;483394;246;28792;-69
2022/07/18 01:48:09;;;;;;;1.70;1.60;;;14.70;99.90;;;;;;483438;246;28823;-71
2022/07/18 01:50:10;;;;;;;1.23;1.23;;;14.60;99.90;;;;;;483314;245;29245;-68
2022/07/18 01:52:11;;;;;;;2.03;1.40;;;14.60;99.90;;;;;;483464;245;29277;-69
2022/07/18 01:54:13;;;;;;;1.20;1.20;;;14.70;99.90;;;;;;483473;246;29268;-68
2022/07/18 01:56:14;;;;;;;2.30;1.10;;;14.70;99.90;;;;;;483406;245;28811;-69
2022/07/18 01:58:15;;;;;;;1.20;1.20;;;14.60;99.90;;;;;;483479;245;28843;-72
2022/07/18 02:00:16;;;;;;;1.53;1.43;;;14.60;99.90;;;;;;483469;245;28792;-68
2022/07/18 02:02:18;;;;;;;1.20;1.20;;;14.70;99.90;;;;;;483446;246;28808;-69
2022/07/18 02:04:19;;;;;;;1.80;1.50;;;14.60;99.90;;;;;;483446;246;28814;-68
2022/07/18 02:06:20;;;;;;;1.27;1.23;;;14.60;99.90;;;;;;483388;245;28520;-68
2022/07/18 02:08:21;;;;;;;1.50;1.40;;;14.60;99.90;;;;;;483426;245;28834;-71
2022/07/18 02:10:23;;;;;;;1.40;1.30;;;14.50;99.90;;;;;;483471;245;28472;-68
2022/07/18 02:12:24;;;;;;;1.30;1.20;;;14.60;99.90;;;;;;483464;245;28807;-68
2022/07/18 02:14:25;;;;;;;1.13;1.13;;;14.60;99.90;;;;;;483455;245;29274;-67
2022/07/18 02:16:27;;;;;;;1.27;1.20;;;14.60;99.90;;;;;;483372;245;29623;-68
2022/07/18 02:18:31;;;;;;;1.50;1.40;;;14.50;99.90;;;;;;483448;245;28912;-70
2022/07/18 02:20:29;;;;;;;1.20;1.20;;;14.50;99.90;;;;;;483215;246;28946;-68
2022/07/18 02:22:30;;;;;;;1.20;1.20;;;14.50;99.90;;;;;;483444;245;28796;-68
2022/07/18 02:24:32;;;;;;;1.40;1.30;;;14.50;99.90;;;;;;483458;245;28882;-68
2022/07/18 02:26:33;;;;;;;1.40;1.30;;;14.40;99.90;;;;;;483367;246;28892;-69
2022/07/18 02:28:34;;;;;;;1.40;1.30;;;14.40;99.90;;;;;;483410;245;28830;-68
2022/07/18 02:30:35;;;;;;;1.43;1.20;;;14.40;99.90;;;;;;483453;245;28624;-68
2022/07/18 02:32:37;;;;;;;1.50;1.40;;;14.40;99.90;;;;;;483442;245;28559;-69
2022/07/18 02:34:38;;;;;;;1.23;1.20;;;14.40;99.90;;;;;;483347;245;28366;-68
2022/07/18 02:36:39;;;;;;;1.40;1.30;;;14.40;99.90;;;;;;483387;246;28820;-67
2022/07/18 02:38:40;;;;;;;1.53;1.43;;;14.30;99.90;;;;;;483475;245;29793;-70
2022/07/18 02:40:42;;;;;;;4.83;1.50;;;14.30;99.90;;;;;;483451;246;29371;-68
2022/07/18 02:42:43;;;;;;;1.57;1.47;;;14.30;99.90;;;;;;483377;245;29391;-69
2022/07/18 02:44:45;;;;;;;1.60;1.50;;;14.30;99.90;;;;;;483444;246;28911;-68
2022/07/18 02:46:45;;;;;;;1.70;1.60;;;14.30;99.90;;;;;;483315;246;28525;-69
2022/07/18 02:48:46;;;;;;;1.40;1.33;;;14.30;99.90;;;;;;483457;246;28822;-72
2022/07/18 02:50:48;;;;;;;1.50;1.40;;;14.20;99.90;;;;;;483447;245;28270;-68
2022/07/18 02:52:50;;;;;;;1.20;1.20;;;14.30;99.90;;;;;;483454;245;28406;-69
2022/07/18 02:54:50;;;;;;;1.53;1.43;;;14.20;99.90;;;;;;483461;245;28584;-68
2022/07/18 02:56:51;;;;;;;1.43;1.30;;;14.30;99.90;;;;;;483399;245;28368;-68
2022/07/18 02:58:53;;;;;;;1.40;1.30;;;14.30;99.90;;;;;;483458;245;28415;-71
2022/07/18 03:00:54;;;;;;;1.43;1.33;;;14.30;99.90;;;;;;483449;245;28159;-68
2022/07/18 03:02:55;;;;;;;1.40;1.30;;;14.40;99.90;;;;;;483414;245;28384;-69
2022/07/18 03:04:56;;;;;;;1.27;1.27;;;14.30;99.90;;;;;;483436;245;29231;-68
2022/07/18 03:06:58;;;;;;;1.40;1.30;;;14.40;99.90;;;;;;483301;245;28895;-68
2022/07/18 03:08:59;;;;;;;1.30;1.20;;;14.30;99.90;;;;;;483472;245;28290;-70
2022/07/18 03:11:00;;;;;;;1.57;1.47;;;14.20;99.90;;;;;;483454;246;28894;-68
2022/07/18 03:13:02;;;;;;;1.43;1.33;;;14.20;99.90;;;;;;483445;245;28412;-69
2022/07/18 03:15:03;;;;;;;1.50;1.40;;;14.20;99.90;;;;;;483452;245;28321;-70
2022/07/18 03:17:04;;;;;;;1.60;1.40;;;14.20;99.90;;;;;;483251;245;28887;-69
2022/07/18 03:19:05;;;;;;;1.20;1.20;;;14.20;99.90;;;;;;483470;245;28575;-71
2022/07/18 03:21:07;;;;;;;1.00;1.00;;;14.10;99.90;;;;;;483272;245;28595;-68
2022/07/18 03:23:08;;;;;;;8.03;1.40;;;14.10;99.90;;;;;;483469;245;29383;-69
2022/07/18 03:25:09;;;;;;;1.30;1.30;;;14.10;99.90;;;;;;483448;246;29239;-68
2022/07/18 03:27:10;;;;;;;1.53;1.20;;;14.10;99.90;;;;;;483327;245;29005;-69
2022/07/18 03:29:12;;;;;;;1.20;1.20;;;14.10;99.90;;;;;;483454;245;28479;-72
2022/07/18 03:31:13;;;;;;;1.43;1.33;;;14.10;99.90;;;;;;483429;245;28267;-68
2022/07/18 03:33:14;;;;;;;1.43;1.37;;;14.20;99.90;;;;;;483451;245;28414;-69
2022/07/18 03:35:15;;;;;;;1.10;1.10;;;14.10;99.90;;;;;;483317;245;28400;-69
2022/07/18 03:37:17;;;;;;;1.30;1.30;;;14.00;99.90;;;;;;483360;245;28402;-68
2022/07/18 03:39:18;;;;;;;1.37;1.30;;;14.00;99.90;;;;;;483456;246;28283;-70
2022/07/18 03:41:19;;;;;;;1.20;1.20;;;14.00;99.90;;;;;;483441;245;28559;-68
2022/07/18 03:43:20;;;;;;;1.60;1.50;;;14.00;99.90;;;;;;483425;245;28600;-68
2022/07/18 03:45:22;;;;;;;1.30;1.30;;;14.00;99.90;;;;;;483447;245;28443;-69
2022/07/18 03:47:24;;;;;;;1.63;1.30;;;;;;;;;;483411;245;28262;-69
2022/07/18 03:49:25;;;;;;;1.30;1.30;;;14.10;99.90;;;;;;483450;246;26518;-68
2022/07/18 03:51:27;;;;;;;1.50;1.40;;;14.10;99.90;;;;;;483435;246;28283;-69
2022/07/18 03:53:28;;;;;;;1.40;1.30;;;14.10;99.90;;;;;;483443;245;28538;-68
2022/07/18 03:55:29;;;;;;;1.30;1.30;;;14.20;99.90;;;;;;483438;245;28598;-68
2022/07/18 03:57:30;;;;;;;1.60;1.50;;;14.20;99.90;;;;;;483295;245;28833;-72
2022/07/18 03:59:33;;;;;;;1.40;1.40;;;14.30;99.90;;;;;;483446;245;28165;-69
2022/07/18 04:01:33;;;;;;;1.73;1.50;;;14.20;99.90;;;;;;483300;245;28524;-69
2022/07/18 04:03:34;;;;;;;2.30;1.63;;;14.20;99.90;;;;;;483404;245;28836;-72
2022/07/18 04:05:35;;;;;;;1.50;1.40;;;14.20;99.90;;;;;;483437;246;28664;-69
2022/07/18 04:07:37;;;;;;;1.13;1.13;;;14.30;99.90;;;;;;483232;246;29066;-70
2022/07/18 04:09:38;;;;;;;1.40;1.40;;;14.30;99.90;;;;;;483421;245;29259;-68
2022/07/18 04:11:39;;;;;;;1.20;1.20;;;14.40;99.90;;;;;;483417;246;29325;-68
2022/07/18 04:13:40;;;;;;;1.77;1.50;;;14.40;99.90;;;;;;483450;245;29403;-73
2022/07/18 04:15:42;;;;;;;1.40;1.30;;;14.40;99.90;;;;;;483441;245;28783;-69
2022/07/18 04:17:43;;;;;;;1.60;1.50;;;14.40;99.90;;;;;;483375;245;28830;-71
2022/07/18 04:19:44;;;;;;;1.33;1.23;;;14.40;99.90;;;;;;483447;245;28782;-68
2022/07/18 04:21:45;;;;;;;1.40;1.30;;;14.40;99.90;;;;;;483412;245;28835;-69
2022/07/18 04:23:47;;;;;;;1.40;1.30;;;14.50;99.90;;;;;;483428;245;28846;-71
2022/07/18 04:25:48;;;;;;;2.30;1.40;;;14.40;99.90;;;;;;483447;245;28876;-68
2022/07/18 04:27:49;;;;;;;1.50;1.40;;;14.40;99.90;;;;;;483250;245;29364;-70
2022/07/18 04:29:50;;;;;;;1.37;1.27;;;14.40;99.90;;;;;;483382;245;29607;-68
2022/07/18 04:31:52;;;;;;;1.83;1.30;;;14.40;99.90;;;;;;483431;246;29378;-69
2022/07/18 04:33:53;;;;;;;2.20;1.57;;;14.50;99.90;;;;;;483436;245;29371;-68
2022/07/18 04:35:54;;;;;;;1.20;1.20;;;14.60;99.90;;;;;;482608;245;28723;-69
2022/07/18 04:37:55;;;;;;;1.90;1.53;;;14.60;99.90;;;;;;483256;245;28923;-71
2022/07/18 04:39:57;;;;;;;1.50;1.40;;;14.70;99.90;;;;;;483441;245;28773;-68
2022/07/18 04:41:58;;;;;;;1.70;1.60;;;14.70;99.90;;;;;;483446;245;28820;-69
2022/07/18 04:43:59;;;;;;;1.60;1.50;;;14.80;99.90;;;;;;483426;245;29166;-72
2022/07/18 04:46:00;;;;;;;1.60;1.50;;;14.80;99.90;;;;;;483440;245;28852;-68
2022/07/18 04:48:02;;;;;;;1.77;1.67;;;14.90;99.90;;;;;;483209;246;28907;-70
2022/07/18 04:50:03;;;;;;;1.70;1.60;;;14.90;99.90;;;;;;483466;245;29212;-68
2022/07/18 04:52:04;;;;;;;1.70;1.60;;;14.80;99.90;;;;;;483473;245;29310;-69
2022/07/18 04:54:06;;;;;;;1.63;1.53;;;14.90;99.90;;;;;;483471;245;29373;-73
2022/07/18 04:56:07;;;;;;;1.53;1.43;;;14.80;99.90;;;;;;483350;245;28800;-70
2022/07/18 04:58:08;;;;;;;1.50;1.50;;;14.70;99.90;;;;;;483441;245;28810;-70
2022/07/18 05:00:09;;;;;;;1.67;1.57;;;14.60;99.90;;;;;;483448;245;28769;-69
2022/07/18 05:02:10;;;;;;;1.60;1.60;;;14.60;99.90;;;;;;483406;245;28890;-70
2022/07/18 05:04:12;;;;;;;1.80;1.70;;;14.70;99.90;;;;;;483444;245;28958;-69
2022/07/18 05:06:13;;;;;;;1.50;1.50;;;14.80;99.90;;;;;;483407;245;28782;-69
2022/07/18 05:08:14;;;;;;;1.70;1.60;;;14.90;99.90;;;;;;483407;245;28814;-69
2022/07/18 05:10:15;;;;;;;1.50;1.50;;;15.00;99.90;;;;;;483444;246;29198;-68
2022/07/18 05:12:18;;;;;;;1.80;1.70;;;15.20;99.90;;;;;;483433;245;28892;-69
2022/07/18 05:14:18;;;;;;;1.60;1.50;;;15.30;99.90;;;;;;483194;246;29225;-74
2022/07/18 05:16:19;;;;;;;1.90;1.80;;;15.20;99.90;;;;;;483379;245;29196;-68
2022/07/18 05:18:20;;;;;;;1.83;1.70;;;15.20;99.90;;;;;;483446;245;29293;-70
2022/07/18 05:20:22;;;;;;;1.80;1.70;;;15.20;99.90;;;;;;483462;245;29278;-68
2022/07/18 05:22:23;;;;;;;1.87;1.77;;;15.20;99.90;;;;;;483447;245;28812;-68
2022/07/18 05:24:24;;;;;;;1.83;1.73;;;15.30;99.90;;;;;;483415;245;28875;-71
2022/07/18 05:26:25;;;;;;;1.80;1.70;;;15.30;99.90;;;;;;483367;245;28845;-68
2022/07/18 05:28:27;;;;;;;1.80;1.70;;;15.30;99.90;;;;;;483386;245;28823;-70
2022/07/18 05:30:28;;;;;;;2.20;1.60;;;15.50;99.90;;;;;;483407;245;28780;-68
2022/07/18 05:32:29;;;;;;;1.67;1.57;;;15.50;99.90;;;;;;483397;246;28901;-68
2022/07/18 05:34:30;;;;;;;1.50;1.40;;;15.60;99.90;;;;;;483317;245;29329;-72
2022/07/18 05:36:32;;;;;;;1.53;1.43;;;15.60;99.90;;;;;;483383;245;28679;-69
2022/07/18 05:38:33;;;;;;;1.67;1.57;;;15.70;99.90;;;;;;483416;245;29314;-70
2022/07/18 05:40:34;;;;;;;1.70;1.60;;;15.70;99.90;;;;;;483434;245;29323;-68
2022/07/18 05:42:35;;;;;;;1.80;1.70;;;15.80;99.90;;;;;;483439;245;29443;-70
2022/07/18 05:44:37;;;;;;;1.43;1.43;;;15.80;99.90;;;;;;483444;245;29282;-70
2022/07/18 05:46:38;;;;;;;1.70;1.60;;;15.80;99.90;;;;;;483394;245;28875;-69
2022/07/18 05:48:39;;;;;;;1.73;1.63;;;15.80;99.90;;;;;;483457;245;28828;-70
2022/07/18 05:50:40;;;;;;;2.73;1.97;;;15.80;99.90;;;;;;483465;245;28866;-69
2022/07/18 05:52:42;;;;;;;1.90;1.80;;;15.90;99.90;;;;;;483344;245;28814;-71
2022/07/18 05:54:43;;;;;;;1.60;1.50;;;16.00;99.90;;;;;;483421;245;28812;-69
2022/07/18 05:56:44;;;;;;;1.60;1.50;;;16.00;99.90;;;;;;483385;246;28794;-70
2022/07/18 05:58:45;;;;;;;1.67;1.57;;;16.10;99.90;;;;;;483457;245;28862;-70
2022/07/18 06:00:47;;;;;;;1.90;1.77;;;16.20;99.90;;;;;;483459;245;28809;-68
2022/07/18 06:02:48;;;;;;;1.70;1.60;;;16.30;99.90;;;;;;483460;245;28858;-69
2022/07/18 06:04:49;;;;;;;2.00;1.90;;;16.30;99.90;;;;;;483472;245;29265;-69
2022/07/18 06:06:50;;;;;;;1.73;1.63;;;16.40;99.90;;;;;;483442;245;29158;-69
2022/07/18 06:08:52;;;;;;;1.90;1.67;;;16.50;99.90;;;;;;483502;246;29288;-70
2022/07/18 06:10:53;;;;;;;1.80;1.70;;;16.60;99.90;;;;;;483489;245;28917;-70
2022/07/18 06:12:54;;;;;;;1.87;1.77;;;16.60;99.90;;;;;;483474;245;28786;-70
2022/07/18 06:14:55;;;;;;;1.50;1.50;;;16.70;99.90;;;;;;483469;246;28932;-69
2022/07/18 06:16:57;;;;;;;1.60;1.50;;;16.80;99.90;;;;;;483445;245;28781;-69
2022/07/18 06:18:58;;;;;;;1.50;1.40;;;16.90;99.90;;;;;;483457;245;28892;-71
2022/07/18 06:20:59;;;;;;;1.57;1.47;;;16.90;99.90;;;;;;483451;245;28799;-70
2022/07/18 06:23:00;;;;;;;1.63;1.53;;;17.00;99.90;;;;;;483436;245;28895;-70
2022/07/18 06:25:02;;;;;;;1.50;1.40;;;17.10;99.90;;;;;;483452;245;28935;-72
2022/07/18 06:27:03;;;;;;;1.60;1.50;;;17.20;99.90;;;;;;483438;245;28795;-69
2022/07/18 06:29:04;;;;;;;1.63;1.53;;;17.20;99.90;;;;;;483448;245;29303;-70
2022/07/18 06:31:05;;;;;;;1.33;1.30;;;17.30;99.90;;;;;;483477;245;29315;-69
2022/07/18 06:33:07;;;;;;;1.50;1.40;;;17.40;99.90;;;;;;483389;245;29362;-69
2022/07/18 06:35:08;;;;;;;1.70;1.60;;;17.50;99.90;;;;;;483314;245;31134;-68
2022/07/18 06:37:09;;;;;;;2.40;1.60;;;17.60;99.90;;;;;;483428;245;28856;-69
2022/07/18 06:39:11;;;;;;;1.70;1.70;;;17.70;99.90;;;;;;483475;245;28806;-71
2022/07/18 06:41:12;;;;;;;2.03;1.70;;;17.80;99.90;;;;;;483452;245;28771;-69
2022/07/18 06:43:18;;;;;;;1.57;1.57;;;17.90;99.90;;;;;;483422;246;28805;-69
2022/07/18 06:45:14;;;;;;;1.90;1.80;;;17.90;99.90;;;;;;483021;246;28896;-69
2022/07/18 06:47:15;;;;;;;1.60;1.60;;;18.10;99.90;;;;;;483417;245;28931;-69
2022/07/18 06:49:17;;;;;;;2.07;1.97;;;18.20;99.90;;;;;;483444;245;28825;-71
2022/07/18 06:51:18;;;;;;;1.60;1.50;;;18.20;99.90;;;;;;483416;245;28850;-69
2022/07/18 06:53:19;;;;;;;3.37;1.70;;;18.40;99.90;;;;;;483420;245;28814;-69
2022/07/18 06:55:21;;;;;;;1.30;1.30;;;18.50;99.90;;;;;;483410;245;29347;-70
2022/07/18 06:57:22;;;;;;;1.33;1.30;;;18.60;99.90;;;;;;483389;245;29334;-69
2022/07/18 06:59:23;;;;;;;1.90;1.80;;;18.70;99.90;;;;;;483456;245;29861;-70
2022/07/18 07:01:24;;;;;;;1.90;1.80;;;18.80;99.90;;;;;;483450;245;28774;-69
2022/07/18 07:03:26;;;;;;;1.80;1.70;;;18.90;99.90;;;;;;483301;245;28819;-70
2022/07/18 07:05:27;;;;;;;1.80;1.70;;;19.00;99.90;;;;;;483451;245;28842;-69
2022/07/18 07:07:29;;;;;;;1.80;1.70;;;19.10;99.90;;;;;;483394;245;28777;-69
2022/07/18 07:09:29;;;;;;;1.73;1.63;;;19.30;99.90;;;;;;483396;246;28878;-71
2022/07/18 07:11:31;;;;;;;1.83;1.73;;;19.40;99.90;;;;;;483448;245;28785;-69
2022/07/18 07:13:32;;;;;;;1.83;1.73;;;19.50;99.90;;;;;;483409;245;28933;-69
2022/07/18 07:15:33;;;;;;;1.70;1.60;;;19.60;99.90;;;;;;483442;245;29175;-74
2022/07/18 07:17:34;;;;;;;1.40;1.30;;;19.80;99.90;;;;;;483371;245;28861;-69
2022/07/18 07:19:36;;;;;;;1.57;1.50;;;19.90;99.90;;;;;;483435;245;29276;-70
2022/07/18 07:21:37;;;;;;;1.80;1.70;;;20.10;99.90;;;;;;483452;245;29237;-69
2022/07/18 07:23:40;;;;;;;1.60;1.50;;;20.20;99.90;;;;;;483430;245;29275;-69
2022/07/18 07:25:39;;;;;;;1.40;1.40;;;20.40;99.90;;;;;;483310;246;28891;-73
2022/07/18 07:27:41;;;;;;;1.70;1.60;;;20.60;99.90;;;;;;483384;245;28791;-69
2022/07/18 07:29:42;;;;;;;2.07;1.50;;;21.20;96.60;;;;;;483458;245;28842;-71
2022/07/18 07:31:43;;;;;;;2.90;1.50;;;21.80;94.60;;;;;;483478;245;28780;-70
2022/07/18 07:33:44;;;;;;;1.63;1.53;;;21.90;95.10;;;;;;483466;245;28898;-70
2022/07/18 07:35:46;;;;;;;2.57;1.73;;;22.20;93.80;;;;;;483332;245;28838;-70
2022/07/18 07:37:47;;;;;;;1.70;1.60;;;22.00;95.30;;;;;;483382;246;28785;-69
2022/07/18 07:39:49;;;;;;;1.77;1.67;;;21.80;94.90;;;;;;483386;245;28890;-70
2022/07/18 07:41:50;;;;;;;2.20;1.90;;;22.30;92.20;;;;;;483363;246;28871;-70
2022/07/18 07:43:51;;;;;;;1.83;1.73;;;22.20;93.20;;;;;;483409;245;29284;-69
2022/07/18 07:45:53;;;;;;;1.73;1.63;;;22.50;91.60;;;;;;483411;246;29331;-73
2022/07/18 07:47:53;;;;;;;2.00;1.90;;;22.50;92.30;;;;;;483363;246;29254;-72
2022/07/18 07:49:54;;;;;;;1.77;1.60;;;22.30;93.40;;;;;;483426;245;29362;-71
2022/07/18 07:51:56;;;;;;;1.87;1.73;;;22.20;92.60;;;;;;483467;245;28921;-69
2022/07/18 07:53:58;;;;;;;1.70;1.60;;;22.80;91.30;;;;;;483439;245;28826;-70
2022/07/18 07:55:58;;;;;;;1.47;1.40;;;23.10;90.30;;;;;;483398;246;28842;-70
2022/07/18 07:57:59;;;;;;;1.87;1.63;;;23.20;90.60;;;;;;483409;245;28779;-70
2022/07/18 08:00:01;;;;;;;2.43;1.60;;;23.20;90.70;;;;;;483442;245;28939;-71
2022/07/18 08:02:02;;;;;;;1.73;1.63;;;23.30;89.60;;;;;;483471;246;28696;-69
2022/07/18 08:04:03;;;;;;;2.03;1.50;;;23.60;89.90;;;;;;483436;245;28818;-70
2022/07/18 08:06:04;;;;;;;3.67;2.13;;;23.80;89.50;;;;;;483383;245;28896;-73
2022/07/18 08:08:06;;;;;;;2.10;1.90;;;23.80;87.90;;;;;;483425;245;29318;-70
2022/07/18 08:10:07;;;;;;;1.60;1.50;;;23.80;87.90;;;;;;483446;245;29313;-71
2022/07/18 08:12:08;;;;;;;2.80;2.10;;;24.00;88.10;;;;;;483425;245;29246;-70
2022/07/18 08:14:09;;;;;;;2.20;2.00;;;23.90;87.80;;;;;;483435;245;29291;-70
2022/07/18 08:16:11;;;;;;;1.80;1.70;;;23.90;89.30;;;;;;483384;245;28922;-70
2022/07/18 08:18:12;;;;;;;2.47;1.70;;;23.70;89.50;;;;;;483417;245;28778;-69
2022/07/18 08:20:13;;;;;;;2.57;1.80;;;23.60;90.20;;;;;;483459;245;28830;-72
2022/07/18 08:22:15;;;;;;;6.67;2.20;;;24.00;87.40;;;;;;483431;245;28889;-70
2022/07/18 08:24:16;;;;;;;1.80;1.70;;;24.10;88.80;;;;;;483427;245;28836;-70
2022/07/18 08:26:17;;;;;;;1.80;1.70;;;24.10;87.70;;;;;;483361;245;28890;-70
2022/07/18 08:28:18;;;;;;;2.80;1.90;;;24.10;88.00;;;;;;483452;245;28786;-70
2022/07/18 08:30:19;;;;;;;1.80;1.70;;;24.20;87.40;;;;;;483449;244;28852;-71
2022/07/18 08:32:21;;;;;;;1.90;1.80;;;24.20;88.40;;;;;;483427;245;29283;-70
2022/07/18 08:34:22;;;;;;;1.93;1.70;;;24.30;87.10;;;;;;483354;246;29277;-71
2022/07/18 08:36:24;;;;;;;2.33;1.90;;;24.40;88.00;;;;;;483379;245;30021;-70
2022/07/18 08:38:24;;;;;;;2.50;1.80;;;24.50;88.50;;;;;;483412;246;29223;-71
2022/07/18 08:40:26;;;;;;;1.73;1.63;;;24.40;87.70;;;;;;483448;245;28821;-72
2022/07/18 08:42:27;;;;;;;2.63;1.93;;;24.50;87.70;;;;;;483453;246;28778;-70
2022/07/18 08:44:28;;;;;;;2.40;1.97;;;24.50;88.80;;;;;;483459;246;28942;-70
2022/07/18 08:46:29;;;;;;;2.10;1.90;;;24.70;86.60;;;;;;483415;245;28869;-69
2022/07/18 08:48:31;;;;;;;3.93;2.10;;;24.70;86.20;;;;;;483447;245;28819;-70
2022/07/18 08:50:32;;;;;;;2.20;2.00;;;24.90;83.60;;;;;;483480;245;28792;-73
2022/07/18 08:52:35;;;;;;;2.10;1.70;;;24.80;85.00;;;;;;483460;245;28773;-71
2022/07/18 08:54:34;;;;;;;1.90;1.80;;;24.50;88.80;;;;;;483322;246;28721;-70
2022/07/18 08:56:36;;;;;;;2.30;2.10;;;24.70;84.40;;;;;;483399;245;28838;-70
2022/07/18 08:58:37;;;;;;;1.80;1.70;;;24.60;85.90;;;;;;483437;245;29273;-70
2022/07/18 09:00:38;;;;;;;1.90;1.80;;;24.60;84.40;;;;;;483459;245;29303;-73
2022/07/18 09:02:39;;;;;;;1.70;1.60;;;25.20;82.40;;;;;;483443;245;29302;-70
2022/07/18 09:04:41;;;;;;;1.90;1.80;;;25.00;81.10;;;;;;483441;245;28921;-70
2022/07/18 09:06:42;;;;;;;1.77;1.67;;;24.90;83.30;;;;;;483407;245;28885;-70
2022/07/18 09:08:43;;;;;;;3.30;2.00;;;25.10;84.10;;;;;;483459;245;28789;-71
2022/07/18 09:10:44;;;;;;;1.90;1.80;;;25.00;83.40;;;;;;483473;245;28808;-71
2022/07/18 09:12:46;;;;;;;1.50;1.40;;;24.90;82.30;;;;;;483448;245;28814;-70
2022/07/18 09:14:47;;;;;;;1.90;1.80;;;25.00;82.20;;;;;;483372;245;28790;-71
2022/07/18 09:16:48;;;;;;;2.03;1.83;;;25.30;83.00;;;;;;483406;246;28861;-69
2022/07/18 09:18:49;;;;;;;1.80;1.70;;;25.30;82.20;;;;;;483443;246;29293;-70
2022/07/18 09:20:51;;;;;;;2.03;1.70;;;25.40;82.50;;;;;;483462;245;29316;-73
2022/07/18 09:22:52;;;;;;;1.60;1.50;;;25.30;82.10;;;;;;483456;245;29225;-70
2022/07/18 09:24:53;;;;;;;2.13;1.93;;;25.50;80.20;;;;;;483432;245;29419;-70
2022/07/18 09:26:56;;;;;;;1.80;1.70;;;25.30;82.20;;;;;;483406;245;28789;-70
2022/07/18 09:28:56;;;;;;;2.33;1.50;;;25.40;80.40;;;;;;480989;246;36074;-70
2022/07/18 09:30:57;;;;;;;2.80;1.73;;;25.40;83.20;;;;;;483465;245;27445;-75
2022/07/18 09:32:58;;;;;;;1.73;1.63;;;25.50;83.80;;;;;;483460;246;28750;-70
2022/07/18 09:34:59;;;;;;;1.67;1.20;;;25.30;84.30;;;;;;483386;245;28908;-70
2022/07/18 09:37:01;;;;;;;2.60;1.60;;;25.10;82.80;;;;;;483397;245;28799;-69
2022/07/18 09:39:02;;;;;;;2.00;1.60;;;25.50;79.10;;;;;;483432;245;28889;-70
2022/07/18 09:41:03;;;;;;;2.27;1.50;;;25.90;80.20;;;;;;483458;245;28818;-73
2022/07/18 09:43:04;;;;;;;1.90;1.47;;;26.00;78.50;;;;;;483458;245;29136;-71
2022/07/18 09:45:06;;;;;;;1.70;1.60;;;26.10;78.00;;;;;;483461;245;29449;-70
2022/07/18 09:47:07;;;;;;;1.67;1.57;;;26.10;77.10;;;;;;483401;245;30156;-70
2022/07/18 09:49:08;;;;;;;1.70;1.60;;;26.10;78.60;;;;;;483310;245;29518;-70
2022/07/18 09:51:10;;;;;;;1.50;1.50;;;26.10;79.60;;;;;;483453;245;28817;-71
2022/07/18 09:53:11;;;;;;;1.67;1.57;;;26.30;78.00;;;;;;483435;245;28856;-70
2022/07/18 09:55:13;;;;;;;6.33;2.03;;;26.50;78.40;;;;;;483374;245;28904;-70
2022/07/18 09:57:13;;;;;;;5.90;1.80;;;26.50;78.80;;;;;;483255;246;28796;-69
2022/07/18 09:59:14;;;;;;;1.97;1.87;;;26.50;78.30;;;;;;483435;245;28874;-70
2022/07/18 10:01:16;;;;;;;1.47;1.37;;;26.20;80.80;;;;;;483469;245;28861;-72
2022/07/18 10:03:17;;;;;;;1.60;1.50;;;26.10;79.90;;;;;;483458;245;28780;-71
2022/07/18 10:05:18;;;;;;;1.80;1.70;;;26.10;81.60;;;;;;483473;245;28900;-70
2022/07/18 10:07:19;;;;;;;1.80;1.70;;;26.00;80.20;;;;;;483387;245;29385;-70
2022/07/18 10:09:21;;;;;;;2.90;2.13;;;26.30;78.00;;;;;;483491;245;29238;-70
2022/07/18 10:11:22;;;;;;;1.70;1.60;;;26.60;78.20;;;;;;483491;245;29411;-71
2022/07/18 10:13:23;;;;;;;2.40;1.70;;;26.40;79.40;;;;;;483484;245;29231;-70
2022/07/18 10:15:24;;;;;;;5.53;1.93;;;26.80;78.70;;;;;;483474;245;28877;-69
2022/07/18 10:17:26;;;;;;;1.63;1.50;;;26.80;79.20;;;;;;483409;245;28868;-70
2022/07/18 10:19:27;;;;;;;2.47;2.07;;;27.00;78.90;;;;;;483464;245;28792;-70
2022/07/18 10:21:30;;;;;;;1.50;1.40;;;27.00;78.30;;;;;;483432;245;28823;-71
2022/07/18 10:23:29;;;;;;;1.70;1.60;;;26.80;77.30;;;;;;483381;246;28795;-70
2022/07/18 10:25:31;;;;;;;1.70;1.60;;;26.70;78.80;;;;;;483438;245;28849;-70
2022/07/18 10:27:32;;;;;;;1.90;1.80;;;26.60;79.40;;;;;;483381;246;28891;-70
2022/07/18 10:29:33;;;;;;;1.67;1.57;;;26.90;78.50;;;;;;483444;245;28771;-69
2022/07/18 10:31:36;;;;;;;1.60;1.50;;;27.20;77.50;;;;;;483464;245;29322;-71
2022/07/18 10:33:36;;;;;;;2.20;1.80;;;27.00;78.30;;;;;;483328;246;29316;-70